Terminal Aerodrome Forecast
Issued by NWS

Home | Current Version | Previous Version | Text Only | Print | Product List | Glossary On
Versions: 1 2 3 4 5 6 7 8 9 10 11 12
000
FTUS44 KEPZ 171700
TAFDMN
TAF
KDMN 171722Z 1718/1818 25015G25KT P6SM VCSH BKN060
     FM180100 27006KT P6SM FEW050 SCT200
     FM181200 25003KT P6SM SCT050 OVC120=

USA.gov is the U.S. government's official web portal to all federal, state and local government web resources and services.